createdAt,value
2023-06-20T00:00:28.546Z,54.27
2023-06-20T00:01:28.589Z,54.26
2023-06-20T00:02:28.737Z,54.25
2023-06-20T00:03:28.736Z,54.25
2023-06-20T00:04:28.821Z,54.25
2023-06-20T00:05:28.824Z,54.26
2023-06-20T00:06:28.882Z,54.26
2023-06-20T00:07:28.939Z,54.25
2023-06-20T00:08:29.023Z,54.27
2023-06-20T00:09:29.094Z,54.28
2023-06-20T00:10:29.223Z,54.29
2023-06-20T00:11:29.229Z,54.31
2023-06-20T00:12:29.268Z,54.32
2023-06-20T00:13:29.346Z,54.32
2023-06-20T00:14:29.425Z,54.33
2023-06-20T00:15:29.483Z,54.33
2023-06-20T00:16:29.534Z,54.34
2023-06-20T00:17:29.624Z,54.32
2023-06-20T00:18:29.667Z,54.32
2023-06-20T00:19:29.750Z,54.30
2023-06-20T00:20:29.800Z,54.29
2023-06-20T00:21:29.876Z,54.31
2023-06-20T00:22:29.939Z,54.29
2023-06-20T00:23:29.974Z,54.29
2023-06-20T00:24:30.100Z,54.33
2023-06-20T00:25:30.090Z,54.33
2023-06-20T00:26:30.164Z,54.36
2023-06-20T00:27:30.259Z,54.35
2023-06-20T00:28:30.293Z,54.36
2023-06-20T00:29:30.360Z,54.40
2023-06-20T00:30:30.414Z,54.38
2023-06-20T00:31:30.488Z,54.32
2023-06-20T00:32:30.628Z,54.30
2023-06-20T00:33:30.602Z,54.32
2023-06-20T00:34:30.689Z,54.35
2023-06-20T00:35:30.739Z,54.33
2023-06-20T00:36:30.824Z,54.35
2023-06-20T00:37:30.846Z,54.34
2023-06-20T00:38:30.929Z,54.33
2023-06-20T00:39:30.976Z,54.33
2023-06-20T00:40:31.059Z,54.34
2023-06-20T00:41:31.108Z,54.35
2023-06-20T00:42:31.201Z,54.34
2023-06-20T00:43:31.256Z,54.36
2023-06-20T00:44:31.306Z,54.36
2023-06-20T00:45:31.406Z,54.34
2023-06-20T00:46:31.464Z,54.37
2023-06-20T00:47:31.726Z,54.38
2023-06-20T00:48:31.582Z,54.37
2023-06-20T00:49:31.652Z,54.40
2023-06-20T00:50:31.672Z,54.38
2023-06-20T00:51:31.737Z,54.41
2023-06-20T00:52:31.801Z,54.44
2023-06-20T00:53:31.891Z,54.42
2023-06-20T00:54:31.949Z,54.40
2023-06-20T00:55:31.995Z,54.43
2023-06-20T00:56:32.067Z,54.40
2023-06-20T00:57:32.142Z,54.44
2023-06-20T00:58:32.186Z,54.39
2023-06-20T00:59:32.240Z,54.44
2023-06-20T01:00:32.299Z,54.40
2023-06-20T01:01:32.389Z,54.41
2023-06-20T01:02:32.562Z,54.38
2023-06-20T01:03:32.643Z,54.38
2023-06-20T01:04:32.583Z,54.39
2023-06-20T01:05:32.663Z,54.39
2023-06-20T01:06:32.701Z,54.39
2023-06-20T01:07:32.761Z,54.38
2023-06-20T01:08:32.822Z,54.40
2023-06-20T01:09:32.907Z,54.42
2023-06-20T01:10:32.987Z,54.42
2023-06-20T01:11:33.033Z,54.43
2023-06-20T01:12:33.081Z,54.39
2023-06-20T01:13:33.145Z,54.41
2023-06-20T01:14:33.226Z,54.44
2023-06-20T01:15:33.294Z,54.41
2023-06-20T01:16:33.371Z,54.44
2023-06-20T01:17:33.433Z,54.43
2023-06-20T01:18:33.481Z,54.46
2023-06-20T01:19:33.568Z,54.44
2023-06-20T01:20:33.600Z,54.44
2023-06-20T01:21:33.702Z,54.41
2023-06-20T01:22:33.748Z,54.42
2023-06-20T01:23:33.848Z,54.42
2023-06-20T01:24:33.894Z,54.42
2023-06-20T01:25:33.942Z,54.45
2023-06-20T01:26:34.027Z,54.43
2023-06-20T01:27:34.068Z,54.44
2023-06-20T01:28:34.135Z,54.43
2023-06-20T01:29:34.186Z,54.46
2023-06-20T01:30:34.269Z,54.44
2023-06-20T01:31:34.307Z,54.48
2023-06-20T01:32:34.406Z,54.45
2023-06-20T01:33:34.451Z,54.45
2023-06-20T01:34:34.512Z,54.46
2023-06-20T01:35:34.575Z,54.45
2023-06-20T01:36:34.636Z,54.45
2023-06-20T01:37:34.709Z,54.43
2023-06-20T01:38:34.776Z,54.45
2023-06-20T01:39:34.876Z,54.42
2023-06-20T01:40:34.920Z,54.45
2023-06-20T01:41:34.973Z,54.45
2023-06-20T01:42:35.035Z,54.48
2023-06-20T01:43:35.096Z,54.48
2023-06-20T01:44:35.194Z,54.46
2023-06-20T01:45:35.233Z,54.46
2023-06-20T01:46:35.308Z,54.44
2023-06-20T01:47:35.367Z,54.45
2023-06-20T01:48:35.425Z,54.42
2023-06-20T01:49:35.491Z,54.42
2023-06-20T01:50:35.526Z,54.44
2023-06-20T01:51:35.588Z,54.44
2023-06-20T01:52:35.649Z,54.44
2023-06-20T01:53:35.708Z,54.42
2023-06-20T01:54:35.824Z,54.40
2023-06-20T01:55:35.857Z,54.42
2023-06-20T01:56:35.940Z,54.46
2023-06-20T01:57:35.990Z,54.46
2023-06-20T01:58:36.060Z,54.47
2023-06-20T01:59:36.104Z,54.48
2023-06-20T02:00:36.176Z,54.47
2023-06-20T02:01:36.270Z,54.48
2023-06-20T02:02:36.333Z,54.47
2023-06-20T02:03:36.408Z,54.48
2023-06-20T02:04:36.431Z,54.49
2023-06-20T02:05:36.474Z,54.48
2023-06-20T02:06:36.544Z,54.44
2023-06-20T02:07:36.631Z,54.48
2023-06-20T02:08:36.710Z,54.46
2023-06-20T02:09:36.800Z,54.46
2023-06-20T02:10:36.865Z,54.45
2023-06-20T02:11:36.881Z,54.47
2023-06-20T02:12:36.968Z,54.43
2023-06-20T02:13:37.033Z,54.47
2023-06-20T02:14:37.089Z,54.45
2023-06-20T02:15:37.150Z,54.45
2023-06-20T02:16:37.281Z,54.46
2023-06-20T02:17:37.282Z,54.49
2023-06-20T02:18:37.337Z,54.47
2023-06-20T02:19:37.489Z,54.46
2023-06-20T02:20:37.462Z,54.47
2023-06-20T02:21:37.518Z,54.47
2023-06-20T02:22:37.601Z,54.52
2023-06-20T02:23:37.655Z,54.52
2023-06-20T02:24:37.829Z,54.49
2023-06-20T02:25:37.773Z,54.50
2023-06-20T02:26:37.861Z,54.48
2023-06-20T02:27:37.945Z,54.50
2023-06-20T02:28:37.997Z,54.50
2023-06-20T02:29:38.069Z,54.50
2023-06-20T02:30:38.115Z,54.49
2023-06-20T02:31:38.209Z,54.47
2023-06-20T02:32:38.245Z,54.49
2023-06-20T02:33:38.297Z,54.49
2023-06-20T02:34:38.328Z,54.53
2023-06-20T02:35:38.387Z,54.48
2023-06-20T02:36:38.498Z,54.49
2023-06-20T02:37:38.517Z,54.48
2023-06-20T02:38:38.607Z,54.52
2023-06-20T02:39:38.677Z,54.49
2023-06-20T02:40:38.708Z,54.50
2023-06-20T02:41:38.769Z,54.51
2023-06-20T02:42:38.850Z,54.49
2023-06-20T02:43:38.944Z,54.49
2023-06-20T02:44:39.009Z,54.50
2023-06-20T02:45:39.031Z,54.49
2023-06-20T02:46:39.141Z,54.50
2023-06-20T02:47:39.236Z,54.47
2023-06-20T02:48:39.250Z,54.50
2023-06-20T02:49:39.304Z,54.47
2023-06-20T02:50:39.343Z,54.48
2023-06-20T02:51:39.417Z,54.46
2023-06-20T02:52:39.503Z,54.47
2023-06-20T02:53:39.577Z,54.46
2023-06-20T02:54:39.608Z,54.48
2023-06-20T02:55:39.649Z,54.50
2023-06-20T02:56:39.729Z,54.49
2023-06-20T02:57:39.798Z,54.47
2023-06-20T02:58:39.859Z,54.48
2023-06-20T02:59:39.914Z,54.48
2023-06-20T03:00:40.015Z,54.46
2023-06-20T03:01:40.089Z,54.46
2023-06-20T03:02:40.170Z,54.46
2023-06-20T03:03:40.252Z,54.48
2023-06-20T03:04:40.296Z,54.52
2023-06-20T03:05:40.329Z,54.51
2023-06-20T03:06:40.394Z,54.51
2023-06-20T03:07:40.428Z,54.48
2023-06-20T03:08:40.503Z,54.50
2023-06-20T03:09:40.596Z,54.50
2023-06-20T03:10:40.627Z,54.50
2023-06-20T03:11:40.721Z,54.49
2023-06-20T03:12:40.799Z,54.50
2023-06-20T03:13:40.837Z,54.49
2023-06-20T03:14:40.887Z,54.52
2023-06-20T03:15:40.949Z,54.53
2023-06-20T03:16:41.007Z,54.51
2023-06-20T03:17:41.205Z,54.51
2023-06-20T03:18:41.148Z,54.51
2023-06-20T03:19:41.177Z,54.51
2023-06-20T03:20:41.254Z,54.52
2023-06-20T03:21:41.326Z,54.52
2023-06-20T03:22:41.368Z,54.51
2023-06-20T03:23:41.463Z,54.52
2023-06-20T03:24:41.526Z,54.54
2023-06-20T03:25:41.567Z,54.50
2023-06-20T03:26:41.656Z,54.51
2023-06-20T03:27:41.726Z,54.50
2023-06-20T03:28:41.779Z,54.51
2023-06-20T03:29:41.805Z,54.50
2023-06-20T03:30:41.886Z,54.52
2023-06-20T03:31:42.035Z,54.50
2023-06-20T03:32:42.013Z,54.49
2023-06-20T03:33:42.087Z,54.53
2023-06-20T03:34:42.159Z,54.48
2023-06-20T03:35:42.208Z,54.52
2023-06-20T03:36:42.257Z,54.49
2023-06-20T03:37:42.346Z,54.53
2023-06-20T03:38:42.393Z,54.51
2023-06-20T03:39:42.469Z,54.51
2023-06-20T03:40:42.498Z,54.52
2023-06-20T03:41:42.582Z,54.52
2023-06-20T03:42:42.618Z,54.51
2023-06-20T03:43:42.691Z,54.49
2023-06-20T03:44:42.785Z,54.52
2023-06-20T03:45:42.814Z,54.52
2023-06-20T03:46:42.923Z,54.51
2023-06-20T03:47:42.974Z,54.50
2023-06-20T03:48:43.004Z,54.51
2023-06-20T03:49:45.196Z,54.52
2023-06-20T03:50:43.248Z,54.51
2023-06-20T03:51:43.313Z,54.54
2023-06-20T03:52:43.389Z,54.50
2023-06-20T03:53:43.423Z,54.51
2023-06-20T03:54:43.517Z,54.53
2023-06-20T03:55:43.572Z,54.52
2023-06-20T03:56:43.616Z,54.53
2023-06-20T03:57:43.674Z,54.51
2023-06-20T03:58:43.729Z,54.52
2023-06-20T03:59:43.780Z,54.51
2023-06-20T04:00:43.900Z,54.49
2023-06-20T04:01:43.940Z,54.52
2023-06-20T04:02:44.044Z,54.51
2023-06-20T04:03:44.077Z,54.51
2023-06-20T04:04:44.138Z,54.50
2023-06-20T04:05:44.172Z,54.53
2023-06-20T04:06:44.264Z,54.51
2023-06-20T04:07:44.608Z,54.54
2023-06-20T04:08:44.358Z,54.54
2023-06-20T04:09:44.441Z,54.54
2023-06-20T04:10:44.526Z,54.53
2023-06-20T04:11:44.567Z,54.54
2023-06-20T04:12:44.633Z,54.52
2023-06-20T04:13:44.671Z,54.53
2023-06-20T04:14:44.740Z,54.52
2023-06-20T04:15:44.803Z,54.51
2023-06-20T04:16:44.834Z,54.52
2023-06-20T04:17:44.878Z,54.51
2023-06-20T04:18:44.918Z,54.51
2023-06-20T04:19:45.003Z,54.49
2023-06-20T04:20:44.995Z,54.51
2023-06-20T04:21:45.051Z,54.51
2023-06-20T04:22:45.123Z,54.51
2023-06-20T04:23:45.155Z,54.53
2023-06-20T04:24:45.340Z,54.53
2023-06-20T04:25:45.272Z,54.53
2023-06-20T04:26:45.324Z,54.48
2023-06-20T04:27:45.440Z,54.50
2023-06-20T04:28:45.465Z,54.51
2023-06-20T04:29:45.529Z,54.53
2023-06-20T04:30:45.645Z,54.50
2023-06-20T04:31:45.659Z,54.52
2023-06-20T04:32:45.780Z,54.53
2023-06-20T04:33:45.827Z,54.51
2023-06-20T04:34:45.834Z,54.54
2023-06-20T04:35:45.911Z,54.54
2023-06-20T04:36:45.983Z,54.51
2023-06-20T04:37:46.038Z,54.51
2023-06-20T04:38:46.104Z,54.51
2023-06-20T04:39:46.179Z,54.51
2023-06-20T04:40:46.234Z,54.52
2023-06-20T04:41:46.326Z,54.50
2023-06-20T04:42:46.375Z,54.53
2023-06-20T04:43:46.399Z,54.50
2023-06-20T04:44:46.489Z,54.51
2023-06-20T04:45:46.572Z,54.50
2023-06-20T04:46:46.640Z,54.50
2023-06-20T04:47:46.738Z,54.51
2023-06-20T04:48:46.807Z,54.52
2023-06-20T04:49:46.835Z,54.51
2023-06-20T04:50:46.869Z,54.50
2023-06-20T04:51:46.944Z,54.52
2023-06-20T04:52:46.962Z,54.52
2023-06-20T04:53:47.037Z,54.54
2023-06-20T04:54:47.105Z,54.52
2023-06-20T04:55:47.182Z,54.53
2023-06-20T04:56:47.229Z,54.55
2023-06-20T04:57:47.307Z,54.53
2023-06-20T04:58:47.360Z,54.52
2023-06-20T04:59:47.397Z,54.53
2023-06-20T05:00:47.464Z,54.53
2023-06-20T05:01:47.521Z,54.53
2023-06-20T05:02:47.591Z,54.49
2023-06-20T05:03:49.520Z,54.51
2023-06-20T05:04:47.669Z,54.51
2023-06-20T05:05:47.720Z,54.52
2023-06-20T05:06:49.612Z,54.50
2023-06-20T05:07:47.846Z,54.52
2023-06-20T05:08:47.945Z,54.49
2023-06-20T05:09:47.982Z,54.52
2023-06-20T05:10:48.023Z,54.50
2023-06-20T05:11:48.094Z,54.49
2023-06-20T05:12:48.124Z,54.50
2023-06-20T05:13:48.180Z,54.51
2023-06-20T05:14:48.273Z,54.49
2023-06-20T05:15:48.349Z,54.51
2023-06-20T05:16:48.380Z,54.50
2023-06-20T05:17:48.447Z,54.48
2023-06-20T05:18:48.476Z,54.49
2023-06-20T05:19:48.533Z,54.48
2023-06-20T05:20:48.619Z,54.51
2023-06-20T05:21:48.657Z,54.50
2023-06-20T05:22:48.756Z,54.54
2023-06-20T05:23:48.806Z,54.52
2023-06-20T05:24:48.927Z,54.51
2023-06-20T05:25:48.911Z,54.49
2023-06-20T05:26:48.933Z,54.51
2023-06-20T05:27:49.008Z,54.49
2023-06-20T05:28:49.073Z,54.50
2023-06-20T05:29:49.139Z,54.53
2023-06-20T05:30:49.185Z,54.49
2023-06-20T05:31:49.342Z,54.50
2023-06-20T05:32:49.491Z,54.51
2023-06-20T05:33:49.364Z,54.49
2023-06-20T05:34:49.428Z,54.46
2023-06-20T05:35:49.452Z,54.47
2023-06-20T05:36:49.537Z,54.48
2023-06-20T05:37:49.586Z,54.51
2023-06-20T05:38:49.675Z,54.48
2023-06-20T05:39:49.724Z,54.49
2023-06-20T05:40:49.785Z,54.47
2023-06-20T05:41:49.856Z,54.46
2023-06-20T05:42:49.930Z,54.48
2023-06-20T05:43:50.040Z,54.46
2023-06-20T05:44:50.087Z,54.50
2023-06-20T05:45:50.169Z,54.46
2023-06-20T05:46:50.244Z,54.49
2023-06-20T05:47:50.320Z,54.48
2023-06-20T05:48:50.327Z,54.50
2023-06-20T05:49:50.418Z,54.51
2023-06-20T05:50:50.455Z,54.48
2023-06-20T05:51:50.505Z,54.49
2023-06-20T05:52:50.596Z,54.49
2023-06-20T05:53:50.631Z,54.49
2023-06-20T05:54:50.741Z,54.47
2023-06-20T05:55:50.787Z,54.50
2023-06-20T05:56:50.836Z,54.60
2023-06-20T05:57:50.869Z,54.74
2023-06-20T05:58:50.946Z,54.72
2023-06-20T05:59:51.082Z,54.74
2023-06-20T06:00:51.075Z,54.89
2023-06-20T06:01:51.126Z,54.88
2023-06-20T06:02:51.246Z,54.87
2023-06-20T06:03:51.318Z,54.96
2023-06-20T06:04:51.403Z,55.17
2023-06-20T06:05:51.346Z,55.19
2023-06-20T06:06:51.368Z,55.21
2023-06-20T06:07:51.446Z,55.08
2023-06-20T06:08:51.489Z,55.09
2023-06-20T06:09:51.539Z,55.11
2023-06-20T06:10:51.551Z,55.17
2023-06-20T06:11:51.606Z,55.18
2023-06-20T06:12:51.658Z,55.26
2023-06-20T06:13:51.665Z,55.29
2023-06-20T06:14:51.707Z,55.30
2023-06-20T06:16:52.808Z,55.34
2023-06-20T06:17:51.796Z,55.37
2023-06-20T06:18:51.719Z,55.37
2023-06-20T06:19:51.757Z,55.40
2023-06-20T06:20:51.692Z,55.42
2023-06-20T06:21:51.707Z,55.45
2023-06-20T06:22:51.714Z,55.54
2023-06-20T06:23:51.672Z,55.56
2023-06-20T06:24:51.686Z,55.55
2023-06-20T06:25:51.711Z,55.57
2023-06-20T06:26:51.690Z,55.60
2023-06-20T06:27:53.614Z,55.60
2023-06-20T06:28:51.676Z,55.63
2023-06-20T06:29:51.656Z,55.67
2023-06-20T06:30:51.677Z,55.80
2023-06-20T06:31:51.629Z,55.79
2023-06-20T06:32:51.661Z,55.83
2023-06-20T06:33:51.594Z,55.87
2023-06-20T06:34:51.653Z,55.85
2023-06-20T06:35:51.622Z,55.90
2023-06-20T06:36:51.657Z,55.88
2023-06-20T06:37:51.625Z,55.94
2023-06-20T06:38:51.806Z,55.94
2023-06-20T06:39:51.644Z,56.00
2023-06-20T06:40:51.600Z,56.05
2023-06-20T06:41:51.567Z,56.10
2023-06-20T06:42:51.684Z,56.07
2023-06-20T06:43:51.551Z,56.16
2023-06-20T06:44:51.572Z,56.13
2023-06-20T06:45:51.559Z,56.23
2023-06-20T06:46:51.584Z,56.25
2023-06-20T06:47:51.557Z,56.22
2023-06-20T06:48:51.548Z,56.23
2023-06-20T06:49:51.517Z,56.28
2023-06-20T06:50:51.537Z,56.31
2023-06-20T06:51:51.764Z,56.35
2023-06-20T06:52:51.510Z,56.40
2023-06-20T06:53:51.488Z,56.46
2023-06-20T06:54:51.497Z,56.47
2023-06-20T06:55:51.498Z,56.54
2023-06-20T06:56:51.488Z,56.56
2023-06-20T06:57:51.459Z,56.63
2023-06-20T06:58:51.490Z,56.60
2023-06-20T06:59:51.458Z,56.70
2023-06-20T07:00:51.455Z,56.73
2023-06-20T07:01:51.434Z,56.74
2023-06-20T07:02:51.448Z,56.74
2023-06-20T07:03:51.490Z,56.72
2023-06-20T07:04:51.470Z,56.76
2023-06-20T07:05:51.448Z,56.78
2023-06-20T07:06:51.549Z,56.84
2023-06-20T07:07:51.486Z,56.87
2023-06-20T07:08:51.409Z,56.88
2023-06-20T07:09:51.406Z,56.93
2023-06-20T07:10:51.396Z,56.94
2023-06-20T07:11:51.391Z,57.03
2023-06-20T07:12:53.826Z,57.05
2023-06-20T07:13:51.370Z,57.20
2023-06-20T07:14:51.556Z,57.21
2023-06-20T07:15:51.405Z,57.26
2023-06-20T07:17:04.543Z,57.27
2023-06-20T07:17:52.440Z,57.32
2023-06-20T07:18:51.334Z,57.40
2023-06-20T07:19:51.332Z,57.41
2023-06-20T07:20:51.362Z,57.48
2023-06-20T07:21:51.321Z,57.47
2023-06-20T07:22:51.342Z,57.59
2023-06-20T07:23:51.335Z,57.69
2023-06-20T07:24:53.285Z,57.79
2023-06-20T07:25:51.277Z,57.86
2023-06-20T07:26:51.320Z,57.86
2023-06-20T07:27:51.294Z,58.02
2023-06-20T07:28:51.286Z,58.08
2023-06-20T07:29:51.300Z,58.14
2023-06-20T07:30:51.288Z,58.18
2023-06-20T07:31:51.309Z,58.31
2023-06-20T07:32:51.307Z,58.28
2023-06-20T07:33:51.252Z,58.34
2023-06-20T07:34:51.291Z,58.40
2023-06-20T07:35:51.210Z,58.48
2023-06-20T07:36:51.244Z,58.58
2023-06-20T07:37:51.200Z,58.60
2023-06-20T07:38:51.179Z,58.63
2023-06-20T07:39:51.210Z,58.89
2023-06-20T07:40:51.176Z,58.90
2023-06-20T07:41:51.179Z,58.88
2023-06-20T07:42:51.195Z,58.86
2023-06-20T07:43:51.196Z,58.82
2023-06-20T07:44:51.235Z,58.87
2023-06-20T07:45:51.181Z,58.96
2023-06-20T07:46:51.158Z,58.86
2023-06-20T07:47:51.415Z,58.80
2023-06-20T07:48:51.134Z,58.77
2023-06-20T07:49:51.173Z,58.74
2023-06-20T07:50:51.142Z,58.70
2023-06-20T07:51:51.134Z,58.69
2023-06-20T07:52:51.135Z,58.72
2023-06-20T07:53:51.200Z,58.67
2023-06-20T07:54:51.161Z,58.78
2023-06-20T07:55:51.172Z,58.77
2023-06-20T07:56:51.153Z,58.77
2023-06-20T07:57:51.168Z,58.76
2023-06-20T07:58:51.273Z,58.77
2023-06-20T07:59:51.336Z,58.71
2023-06-20T08:00:51.089Z,58.78
2023-06-20T08:01:51.130Z,58.77
2023-06-20T08:02:51.116Z,58.81
2023-06-20T08:03:51.284Z,58.77
2023-06-20T08:04:51.103Z,58.75
2023-06-20T08:05:51.252Z,58.78
2023-06-20T08:06:51.040Z,58.72
2023-06-20T08:07:51.404Z,58.73
2023-06-20T08:08:51.070Z,58.67
2023-06-20T08:09:51.360Z,58.67
2023-06-20T08:10:52.652Z,58.68
2023-06-20T08:11:51.018Z,58.66
2023-06-20T08:12:50.990Z,58.63
2023-06-20T08:13:51.007Z,58.63
2023-06-20T08:14:50.993Z,58.61
2023-06-20T08:15:51.041Z,58.64
2023-06-20T08:16:50.947Z,58.64
2023-06-20T08:17:50.976Z,58.62
2023-06-20T08:18:50.995Z,58.54
2023-06-20T08:19:50.967Z,58.57
2023-06-20T08:20:50.942Z,58.55
2023-06-20T08:21:50.928Z,58.49
2023-06-20T08:22:50.920Z,58.50
2023-06-20T08:23:50.925Z,58.49
2023-06-20T08:24:50.941Z,58.58
2023-06-20T08:25:50.930Z,58.48
2023-06-20T08:26:50.989Z,58.43
2023-06-20T08:27:58.831Z,58.46
2023-06-20T08:28:51.917Z,58.49
2023-06-20T08:29:50.933Z,58.46
2023-06-20T08:30:50.932Z,58.43
2023-06-20T08:31:50.880Z,58.39
2023-06-20T08:32:50.929Z,58.37
2023-06-20T08:33:50.867Z,58.38
2023-06-20T08:34:52.370Z,58.33
2023-06-20T08:35:50.848Z,58.28
2023-06-20T08:36:50.855Z,58.27
2023-06-20T08:37:50.845Z,58.29
2023-06-20T08:38:50.821Z,58.29
2023-06-20T08:39:50.852Z,58.21
2023-06-20T08:40:50.835Z,58.14
2023-06-20T08:41:50.822Z,58.10
2023-06-20T08:42:50.983Z,58.12
2023-06-20T08:43:50.804Z,58.05
2023-06-20T08:44:57.058Z,57.75
2023-06-20T08:45:51.816Z,57.62
2023-06-20T08:46:50.818Z,57.56
2023-06-20T08:47:50.781Z,57.55
2023-06-20T08:48:52.926Z,57.49
2023-06-20T08:49:50.815Z,57.48
2023-06-20T08:50:50.987Z,57.84
2023-06-20T08:51:50.932Z,57.73
2023-06-20T08:52:50.903Z,57.88
2023-06-20T08:53:50.962Z,58.02
2023-06-20T08:54:50.947Z,58.10
2023-06-20T08:55:50.966Z,58.17
2023-06-20T08:56:50.990Z,58.24
2023-06-20T08:57:51.224Z,58.27
2023-06-20T08:58:51.101Z,58.28
2023-06-20T08:59:51.082Z,58.44
2023-06-20T09:00:51.101Z,58.38
2023-06-20T09:01:51.211Z,58.51
2023-06-20T09:02:51.200Z,58.69
2023-06-20T09:03:51.186Z,58.71
2023-06-20T09:04:51.148Z,58.73
2023-06-20T09:05:51.164Z,58.84
2023-06-20T09:06:51.162Z,58.82
2023-06-20T09:07:51.196Z,58.82
2023-06-20T09:08:51.139Z,58.93
2023-06-20T09:09:51.165Z,59.06
2023-06-20T09:10:51.172Z,59.14
2023-06-20T09:11:51.205Z,59.16
2023-06-20T09:12:51.186Z,59.15
2023-06-20T09:13:51.182Z,59.13
2023-06-20T09:14:51.736Z,59.20
2023-06-20T09:15:51.166Z,59.23
2023-06-20T09:16:51.279Z,59.30
2023-06-20T09:17:51.252Z,59.38
2023-06-20T09:18:51.182Z,59.42
2023-06-20T09:19:51.152Z,59.42
2023-06-20T09:20:51.249Z,59.40
2023-06-20T09:22:00.691Z,59.44
2023-06-20T09:22:52.144Z,59.48
2023-06-20T09:23:51.142Z,59.89
2023-06-20T09:24:51.146Z,59.74
2023-06-20T09:25:51.130Z,59.82
2023-06-20T09:26:51.112Z,59.81
2023-06-20T09:27:51.149Z,59.93
2023-06-20T09:28:51.114Z,59.83
2023-06-20T09:29:51.117Z,59.84
2023-06-20T09:30:51.260Z,59.78
2023-06-20T09:31:51.061Z,59.73
2023-06-20T09:32:51.147Z,59.70
2023-06-20T09:33:51.123Z,59.61
2023-06-20T09:34:51.280Z,59.56
2023-06-20T09:35:51.259Z,59.54
2023-06-20T09:36:51.285Z,59.49
2023-06-20T09:37:51.335Z,59.49
2023-06-20T09:38:51.427Z,59.47
2023-06-20T09:39:51.495Z,59.53
2023-06-20T09:40:51.584Z,59.53
2023-06-20T09:41:51.610Z,59.44
2023-06-20T09:42:51.683Z,59.47
2023-06-20T09:43:51.736Z,59.50
2023-06-20T09:44:51.817Z,59.62
2023-06-20T09:45:51.878Z,59.58
2023-06-20T09:46:51.985Z,59.27
2023-06-20T09:47:52.063Z,59.14
2023-06-20T09:48:52.015Z,59.05
2023-06-20T09:49:52.062Z,59.05
2023-06-20T09:50:52.156Z,59.06
2023-06-20T09:51:52.181Z,58.96
2023-06-20T09:52:52.288Z,58.92
2023-06-20T09:53:52.316Z,59.12
2023-06-20T09:54:52.377Z,59.11
2023-06-20T09:55:52.390Z,59.06
2023-06-20T09:56:52.440Z,59.64
2023-06-20T09:57:52.550Z,59.30
2023-06-20T09:58:52.576Z,59.20
2023-06-20T09:59:52.645Z,59.21
2023-06-20T10:00:52.709Z,59.29
2023-06-20T10:01:54.382Z,59.38
2023-06-20T10:02:52.824Z,59.48
2023-06-20T10:03:52.903Z,59.53
2023-06-20T10:04:52.759Z,59.49
2023-06-20T10:05:52.727Z,59.53
2023-06-20T10:06:52.739Z,59.39
2023-06-20T10:07:52.751Z,59.43
2023-06-20T10:08:52.705Z,59.45
2023-06-20T10:09:52.747Z,59.52
2023-06-20T10:10:52.717Z,59.47
2023-06-20T10:11:52.674Z,59.65
2023-06-20T10:12:52.691Z,59.50
2023-06-20T10:13:52.722Z,59.56
2023-06-20T10:14:52.734Z,59.43
2023-06-20T10:15:52.678Z,59.58
2023-06-20T10:16:52.703Z,59.64
2023-06-20T10:17:52.830Z,59.53
2023-06-20T10:18:52.741Z,59.73
2023-06-20T10:19:52.757Z,59.70
2023-06-20T10:20:52.655Z,59.69
2023-06-20T10:21:52.696Z,59.57
2023-06-20T10:22:52.648Z,59.77
2023-06-20T10:23:52.630Z,60.03
2023-06-20T10:24:52.666Z,60.02
2023-06-20T10:25:52.617Z,59.86
2023-06-20T10:26:52.620Z,59.82
2023-06-20T10:27:52.606Z,59.85
2023-06-20T10:28:52.581Z,59.93
2023-06-20T10:29:52.603Z,59.76
2023-06-20T10:30:52.584Z,59.67
2023-06-20T10:31:52.693Z,59.73
2023-06-20T10:32:52.600Z,59.82
2023-06-20T10:33:52.562Z,60.07
2023-06-20T10:34:52.591Z,60.09
2023-06-20T10:35:52.570Z,60.05
2023-06-20T10:36:52.536Z,59.99
2023-06-20T10:37:52.526Z,59.89
2023-06-20T10:38:52.521Z,59.86
2023-06-20T10:39:52.528Z,59.92
2023-06-20T10:40:52.532Z,60.00
2023-06-20T10:41:52.512Z,60.03
2023-06-20T10:42:52.525Z,60.08
2023-06-20T10:43:52.480Z,60.04
2023-06-20T10:44:52.516Z,60.10
2023-06-20T10:45:52.508Z,60.18
2023-06-20T10:46:52.483Z,60.18
2023-06-20T10:47:52.552Z,60.23
2023-06-20T10:48:52.576Z,60.28
2023-06-20T10:49:52.618Z,60.31
2023-06-20T10:50:52.868Z,60.27
2023-06-20T10:51:52.753Z,60.27
2023-06-20T10:52:52.800Z,60.28
2023-06-20T10:53:52.877Z,60.27
2023-06-20T10:54:52.903Z,60.36
2023-06-20T10:55:52.992Z,60.37
2023-06-20T10:56:52.979Z,60.36
2023-06-20T10:57:53.050Z,60.30
2023-06-20T10:58:53.044Z,60.20
2023-06-20T10:59:53.125Z,60.12
2023-06-20T11:00:53.198Z,60.01
2023-06-20T11:01:53.225Z,60.04
2023-06-20T11:02:53.386Z,60.05
2023-06-20T11:03:53.329Z,60.03
2023-06-20T11:04:53.372Z,59.96
2023-06-20T11:05:53.394Z,59.91
2023-06-20T11:06:53.439Z,59.91
2023-06-20T11:07:53.458Z,59.90
2023-06-20T11:08:53.520Z,59.91
2023-06-20T11:09:53.549Z,59.89
2023-06-20T11:10:53.577Z,59.92
2023-06-20T11:11:53.643Z,59.90
2023-06-20T11:12:53.650Z,59.88
2023-06-20T11:13:53.663Z,59.87
2023-06-20T11:14:53.716Z,59.89
2023-06-20T11:15:53.663Z,59.84
2023-06-20T11:16:53.679Z,59.86
2023-06-20T11:17:53.763Z,59.82
2023-06-20T11:18:54.703Z,59.82
2023-06-20T11:19:53.713Z,59.83
2023-06-20T11:20:53.677Z,59.82
2023-06-20T11:21:53.688Z,59.81
2023-06-20T11:22:53.694Z,59.79
2023-06-20T11:23:53.707Z,59.78
2023-06-20T11:24:53.860Z,59.76
2023-06-20T11:25:55.952Z,59.74
2023-06-20T11:26:53.659Z,59.75
2023-06-20T11:27:53.629Z,59.72
2023-06-20T11:29:05.966Z,59.72
2023-06-20T11:29:54.634Z,59.75
2023-06-20T11:30:53.680Z,59.72
2023-06-20T11:31:53.588Z,59.75
2023-06-20T11:32:53.671Z,59.69
2023-06-20T11:33:53.580Z,59.74
2023-06-20T11:34:53.593Z,59.69
2023-06-20T11:35:53.559Z,59.70
2023-06-20T11:36:53.575Z,59.73
2023-06-20T11:37:53.570Z,59.72
2023-06-20T11:38:53.536Z,59.72
2023-06-20T11:39:53.783Z,59.71
2023-06-20T11:40:53.697Z,59.72
2023-06-20T11:41:53.658Z,59.73
2023-06-20T11:42:53.548Z,59.72
2023-06-20T11:43:53.512Z,59.73
2023-06-20T11:44:53.514Z,59.70
2023-06-20T11:45:53.595Z,59.71
2023-06-20T11:46:53.922Z,59.73
2023-06-20T11:47:53.536Z,59.70
2023-06-20T11:48:53.527Z,59.69
2023-06-20T11:49:53.772Z,59.71
2023-06-20T11:50:53.508Z,59.71
2023-06-20T11:51:53.445Z,59.72
2023-06-20T11:52:53.478Z,59.70
2023-06-20T11:53:53.696Z,59.68
2023-06-20T11:54:53.697Z,59.71
2023-06-20T11:55:53.453Z,59.69
2023-06-20T11:56:53.446Z,59.70
2023-06-20T11:57:53.470Z,59.68
2023-06-20T11:58:53.438Z,59.68
2023-06-20T11:59:53.459Z,59.68
2023-06-20T12:00:53.447Z,59.63
2023-06-20T12:01:53.510Z,59.67
2023-06-20T12:02:53.562Z,59.61
2023-06-20T12:03:53.491Z,59.63
2023-06-20T12:04:53.460Z,59.61
2023-06-20T12:05:53.453Z,59.61
2023-06-20T12:06:53.460Z,59.61
2023-06-20T12:07:53.470Z,59.55
2023-06-20T12:08:53.483Z,59.60
2023-06-20T12:09:53.658Z,59.58
2023-06-20T12:10:53.767Z,59.52
2023-06-20T12:11:53.825Z,59.53
2023-06-20T12:12:53.510Z,59.51
2023-06-20T12:13:53.517Z,59.47
2023-06-20T12:14:53.590Z,59.48
2023-06-20T12:15:53.765Z,59.47
2023-06-20T12:16:53.510Z,59.48
2023-06-20T12:17:53.586Z,59.48
2023-06-20T12:18:53.531Z,59.48
2023-06-20T12:19:53.527Z,59.49
2023-06-20T12:21:02.696Z,59.46
2023-06-20T12:21:54.494Z,59.45
2023-06-20T12:22:53.512Z,59.43
2023-06-20T12:23:53.513Z,59.43
2023-06-20T12:24:53.506Z,59.42
2023-06-20T12:25:53.476Z,59.44
2023-06-20T12:26:53.482Z,59.39
2023-06-20T12:27:53.459Z,59.39
2023-06-20T12:28:53.471Z,59.37
2023-06-20T12:29:53.475Z,59.35
2023-06-20T12:30:53.598Z,59.33
2023-06-20T12:31:53.489Z,59.30
2023-06-20T12:32:53.501Z,59.29
2023-06-20T12:33:53.421Z,59.28
2023-06-20T12:34:53.499Z,59.28
2023-06-20T12:35:53.437Z,59.26
2023-06-20T12:36:53.404Z,59.24
2023-06-20T12:37:53.415Z,59.21
2023-06-20T12:38:53.397Z,59.24
2023-06-20T12:39:53.378Z,59.22
2023-06-20T12:40:53.407Z,59.20
2023-06-20T12:41:53.369Z,59.22
2023-06-20T12:42:53.380Z,59.22
2023-06-20T12:43:53.386Z,59.19
2023-06-20T12:44:53.372Z,59.17
2023-06-20T12:45:53.397Z,59.15
2023-06-20T12:46:53.363Z,59.15
2023-06-20T12:47:53.437Z,59.15
2023-06-20T12:48:53.360Z,59.11
2023-06-20T12:49:53.430Z,59.14
2023-06-20T12:50:53.337Z,59.11
2023-06-20T12:51:53.328Z,59.08
2023-06-20T12:52:53.366Z,59.07
2023-06-20T12:53:53.347Z,59.05